sensor_id;sensor_type;location;lat;lon;timestamp;P1;durP1;ratioP1;P2;durP2;ratioP2
60969;SDS011;46841;48.938;9.502;2024-02-15T00:01:55;0.60;;;0.60;;
60969;SDS011;46841;48.938;9.502;2024-02-15T00:04:21;0.60;;;0.60;;
60969;SDS011;46841;48.938;9.502;2024-02-15T00:06:46;0.60;;;0.60;;
60969;SDS011;46841;48.938;9.502;2024-02-15T00:09:12;0.50;;;0.50;;
60969;SDS011;46841;48.938;9.502;2024-02-15T00:11:38;0.60;;;0.60;;
60969;SDS011;46841;48.938;9.502;2024-02-15T00:14:04;0.57;;;0.57;;
60969;SDS011;46841;48.938;9.502;2024-02-15T00:16:30;0.50;;;0.50;;
60969;SDS011;46841;48.938;9.502;2024-02-15T00:18:56;0.60;;;0.60;;
60969;SDS011;46841;48.938;9.502;2024-02-15T00:21:22;0.50;;;0.50;;
60969;SDS011;46841;48.938;9.502;2024-02-15T00:23:48;0.57;;;0.57;;
60969;SDS011;46841;48.938;9.502;2024-02-15T00:26:14;0.60;;;0.60;;
60969;SDS011;46841;48.938;9.502;2024-02-15T00:28:43;0.52;;;0.52;;
60969;SDS011;46841;48.938;9.502;2024-02-15T00:31:08;0.60;;;0.60;;
60969;SDS011;46841;48.938;9.502;2024-02-15T00:33:35;0.60;;;0.60;;
60969;SDS011;46841;48.938;9.502;2024-02-15T00:36:02;0.60;;;0.60;;
60969;SDS011;46841;48.938;9.502;2024-02-15T00:40:54;0.65;;;0.65;;
60969;SDS011;46841;48.938;9.502;2024-02-15T00:43:20;0.60;;;0.60;;
60969;SDS011;46841;48.938;9.502;2024-02-15T00:45:45;0.60;;;0.60;;
60969;SDS011;46841;48.938;9.502;2024-02-15T00:48:11;0.52;;;0.52;;
60969;SDS011;46841;48.938;9.502;2024-02-15T00:50:37;0.60;;;0.60;;
60969;SDS011;46841;48.938;9.502;2024-02-15T00:53:03;0.60;;;0.60;;
60969;SDS011;46841;48.938;9.502;2024-02-15T00:55:29;0.60;;;0.60;;
60969;SDS011;46841;48.938;9.502;2024-02-15T00:57:55;0.60;;;0.60;;
60969;SDS011;46841;48.938;9.502;2024-02-15T01:00:20;0.60;;;0.60;;
60969;SDS011;46841;48.938;9.502;2024-02-15T01:02:46;0.60;;;0.60;;
60969;SDS011;46841;48.938;9.502;2024-02-15T01:05:12;0.60;;;0.60;;
60969;SDS011;46841;48.938;9.502;2024-02-15T01:07:40;0.60;;;0.60;;
60969;SDS011;46841;48.938;9.502;2024-02-15T01:10:10;0.60;;;0.60;;
60969;SDS011;46841;48.938;9.502;2024-02-15T01:12:35;0.60;;;0.60;;
60969;SDS011;46841;48.938;9.502;2024-02-15T01:15:01;0.60;;;0.60;;
60969;SDS011;46841;48.938;9.502;2024-02-15T01:17:28;0.70;;;0.70;;
60969;SDS011;46841;48.938;9.502;2024-02-15T01:19:54;0.60;;;0.60;;
60969;SDS011;46841;48.938;9.502;2024-02-15T01:22:20;0.60;;;0.60;;
60969;SDS011;46841;48.938;9.502;2024-02-15T01:24:48;0.60;;;0.60;;
60969;SDS011;46841;48.938;9.502;2024-02-15T01:27:15;0.60;;;0.60;;
60969;SDS011;46841;48.938;9.502;2024-02-15T01:29:42;0.60;;;0.60;;
60969;SDS011;46841;48.938;9.502;2024-02-15T01:32:09;0.60;;;0.60;;
60969;SDS011;46841;48.938;9.502;2024-02-15T01:34:34;0.60;;;0.60;;
60969;SDS011;46841;48.938;9.502;2024-02-15T01:37:00;0.70;;;0.70;;
60969;SDS011;46841;48.938;9.502;2024-02-15T01:39:26;0.70;;;0.70;;
60969;SDS011;46841;48.938;9.502;2024-02-15T01:41:51;0.57;;;0.57;;
60969;SDS011;46841;48.938;9.502;2024-02-15T01:44:21;0.60;;;0.60;;
60969;SDS011;46841;48.938;9.502;2024-02-15T01:46:48;0.70;;;0.70;;
60969;SDS011;46841;48.938;9.502;2024-02-15T01:49:24;0.60;;;0.60;;
60969;SDS011;46841;48.938;9.502;2024-02-15T01:51:53;0.70;;;0.70;;
60969;SDS011;46841;48.938;9.502;2024-02-15T01:54:21;0.70;;;0.70;;
60969;SDS011;46841;48.938;9.502;2024-02-15T01:56:48;0.70;;;0.70;;
60969;SDS011;46841;48.938;9.502;2024-02-15T01:59:17;0.63;;;0.63;;
60969;SDS011;46841;48.938;9.502;2024-02-15T02:01:44;0.60;;;0.60;;
60969;SDS011;46841;48.938;9.502;2024-02-15T02:04:10;0.70;;;0.70;;
60969;SDS011;46841;48.938;9.502;2024-02-15T02:06:39;0.70;;;0.70;;
60969;SDS011;46841;48.938;9.502;2024-02-15T02:09:06;0.60;;;0.60;;
60969;SDS011;46841;48.938;9.502;2024-02-15T02:11:36;0.70;;;0.70;;
60969;SDS011;46841;48.938;9.502;2024-02-15T02:14:02;0.60;;;0.60;;
60969;SDS011;46841;48.938;9.502;2024-02-15T02:18:56;0.65;;;0.65;;
60969;SDS011;46841;48.938;9.502;2024-02-15T02:21:26;0.70;;;0.70;;
60969;SDS011;46841;48.938;9.502;2024-02-15T02:23:56;0.60;;;0.60;;
60969;SDS011;46841;48.938;9.502;2024-02-15T02:26:23;0.60;;;0.60;;
60969;SDS011;46841;48.938;9.502;2024-02-15T02:28:49;0.70;;;0.70;;
60969;SDS011;46841;48.938;9.502;2024-02-15T02:31:18;0.60;;;0.60;;
60969;SDS011;46841;48.938;9.502;2024-02-15T02:33:48;0.70;;;0.70;;
60969;SDS011;46841;48.938;9.502;2024-02-15T02:36:19;0.70;;;0.70;;
60969;SDS011;46841;48.938;9.502;2024-02-15T02:38:45;0.60;;;0.60;;
60969;SDS011;46841;48.938;9.502;2024-02-15T02:41:11;0.70;;;0.70;;
60969;SDS011;46841;48.938;9.502;2024-02-15T02:43:39;0.70;;;0.70;;
60969;SDS011;46841;48.938;9.502;2024-02-15T02:46:05;0.70;;;0.70;;
60969;SDS011;46841;48.938;9.502;2024-02-15T02:48:35;0.70;;;0.70;;
60969;SDS011;46841;48.938;9.502;2024-02-15T02:51:01;0.70;;;0.70;;
60969;SDS011;46841;48.938;9.502;2024-02-15T02:53:28;0.70;;;0.70;;
60969;SDS011;46841;48.938;9.502;2024-02-15T02:55:54;0.60;;;0.60;;
60969;SDS011;46841;48.938;9.502;2024-02-15T02:58:21;0.70;;;0.70;;
60969;SDS011;46841;48.938;9.502;2024-02-15T03:00:49;0.70;;;0.70;;
60969;SDS011;46841;48.938;9.502;2024-02-15T03:03:17;0.70;;;0.70;;
60969;SDS011;46841;48.938;9.502;2024-02-15T03:08:11;0.60;;;0.60;;
60969;SDS011;46841;48.938;9.502;2024-02-15T03:10:43;0.70;;;0.70;;
60969;SDS011;46841;48.938;9.502;2024-02-15T03:13:09;0.70;;;0.70;;
60969;SDS011;46841;48.938;9.502;2024-02-15T03:15:35;0.60;;;0.60;;
60969;SDS011;46841;48.938;9.502;2024-02-15T03:18:02;0.70;;;0.70;;
60969;SDS011;46841;48.938;9.502;2024-02-15T03:20:32;0.70;;;0.70;;
60969;SDS011;46841;48.938;9.502;2024-02-15T03:23:01;0.70;;;0.70;;
60969;SDS011;46841;48.938;9.502;2024-02-15T03:25:27;0.60;;;0.60;;
60969;SDS011;46841;48.938;9.502;2024-02-15T03:27:58;0.70;;;0.70;;
60969;SDS011;46841;48.938;9.502;2024-02-15T03:30:29;0.70;;;0.70;;
60969;SDS011;46841;48.938;9.502;2024-02-15T03:32:56;0.70;;;0.70;;
60969;SDS011;46841;48.938;9.502;2024-02-15T03:35:25;0.70;;;0.70;;
60969;SDS011;46841;48.938;9.502;2024-02-15T03:37:52;0.70;;;0.70;;
60969;SDS011;46841;48.938;9.502;2024-02-15T03:40:18;0.65;;;0.65;;
60969;SDS011;46841;48.938;9.502;2024-02-15T03:42:45;0.70;;;0.70;;
60969;SDS011;46841;48.938;9.502;2024-02-15T03:45:11;0.70;;;0.70;;
60969;SDS011;46841;48.938;9.502;2024-02-15T03:47:38;0.73;;;0.73;;
60969;SDS011;46841;48.938;9.502;2024-02-15T03:50:06;0.70;;;0.70;;
60969;SDS011;46841;48.938;9.502;2024-02-15T03:52:34;0.70;;;0.70;;
60969;SDS011;46841;48.938;9.502;2024-02-15T03:55:00;0.70;;;0.70;;
60969;SDS011;46841;48.938;9.502;2024-02-15T03:57:27;0.70;;;0.70;;
60969;SDS011;46841;48.938;9.502;2024-02-15T03:59:53;0.70;;;0.70;;
60969;SDS011;46841;48.938;9.502;2024-02-15T04:02:22;0.70;;;0.70;;
60969;SDS011;46841;48.938;9.502;2024-02-15T04:04:52;0.70;;;0.70;;
60969;SDS011;46841;48.938;9.502;2024-02-15T04:07:21;0.70;;;0.70;;
60969;SDS011;46841;48.938;9.502;2024-02-15T04:09:53;0.70;;;0.70;;
60969;SDS011;46841;48.938;9.502;2024-02-15T04:12:18;0.70;;;0.70;;
60969;SDS011;46841;48.938;9.502;2024-02-15T04:14:44;0.70;;;0.70;;
60969;SDS011;46841;48.938;9.502;2024-02-15T04:17:10;0.60;;;0.60;;
60969;SDS011;46841;48.938;9.502;2024-02-15T04:19:41;0.70;;;0.70;;
60969;SDS011;46841;48.938;9.502;2024-02-15T04:22:06;0.70;;;0.70;;
60969;SDS011;46841;48.938;9.502;2024-02-15T04:24:33;0.70;;;0.70;;
60969;SDS011;46841;48.938;9.502;2024-02-15T04:27:06;0.70;;;0.70;;
60969;SDS011;46841;48.938;9.502;2024-02-15T04:29:37;0.60;;;0.60;;
60969;SDS011;46841;48.938;9.502;2024-02-15T04:32:06;0.70;;;0.70;;
60969;SDS011;46841;48.938;9.502;2024-02-15T04:34:35;0.60;;;0.60;;
60969;SDS011;46841;48.938;9.502;2024-02-15T04:37:02;0.70;;;0.70;;
60969;SDS011;46841;48.938;9.502;2024-02-15T04:39:34;0.60;;;0.60;;
60969;SDS011;46841;48.938;9.502;2024-02-15T04:42:01;0.63;;;0.63;;
60969;SDS011;46841;48.938;9.502;2024-02-15T04:44:28;0.70;;;0.70;;
60969;SDS011;46841;48.938;9.502;2024-02-15T04:46:54;0.60;;;0.60;;
60969;SDS011;46841;48.938;9.502;2024-02-15T04:49:20;0.70;;;0.70;;
60969;SDS011;46841;48.938;9.502;2024-02-15T04:51:46;0.60;;;0.60;;
60969;SDS011;46841;48.938;9.502;2024-02-15T04:54:19;0.70;;;0.70;;
60969;SDS011;46841;48.938;9.502;2024-02-15T04:56:44;0.70;;;0.70;;
60969;SDS011;46841;48.938;9.502;2024-02-15T04:59:11;0.60;;;0.60;;
60969;SDS011;46841;48.938;9.502;2024-02-15T05:01:41;0.70;;;0.70;;
60969;SDS011;46841;48.938;9.502;2024-02-15T05:04:09;0.60;;;0.60;;
60969;SDS011;46841;48.938;9.502;2024-02-15T05:06:36;0.60;;;0.60;;
60969;SDS011;46841;48.938;9.502;2024-02-15T05:09:02;0.60;;;0.60;;
60969;SDS011;46841;48.938;9.502;2024-02-15T05:11:39;0.60;;;0.60;;
60969;SDS011;46841;48.938;9.502;2024-02-15T05:14:12;0.70;;;0.70;;
60969;SDS011;46841;48.938;9.502;2024-02-15T05:16:44;0.70;;;0.70;;
60969;SDS011;46841;48.938;9.502;2024-02-15T05:19:12;0.60;;;0.60;;
60969;SDS011;46841;48.938;9.502;2024-02-15T05:21:41;0.60;;;0.60;;
60969;SDS011;46841;48.938;9.502;2024-02-15T05:24:14;0.60;;;0.60;;
60969;SDS011;46841;48.938;9.502;2024-02-15T05:26:41;0.60;;;0.60;;
60969;SDS011;46841;48.938;9.502;2024-02-15T05:29:12;0.70;;;0.70;;
60969;SDS011;46841;48.938;9.502;2024-02-15T05:31:39;0.70;;;0.70;;
60969;SDS011;46841;48.938;9.502;2024-02-15T05:34:07;0.70;;;0.70;;
60969;SDS011;46841;48.938;9.502;2024-02-15T05:36:39;0.65;;;0.65;;
60969;SDS011;46841;48.938;9.502;2024-02-15T05:39:04;0.60;;;0.60;;
60969;SDS011;46841;48.938;9.502;2024-02-15T05:41:31;0.73;;;0.73;;
60969;SDS011;46841;48.938;9.502;2024-02-15T05:43:58;0.70;;;0.70;;
60969;SDS011;46841;48.938;9.502;2024-02-15T05:46:23;0.63;;;0.63;;
60969;SDS011;46841;48.938;9.502;2024-02-15T05:48:50;0.70;;;0.70;;
60969;SDS011;46841;48.938;9.502;2024-02-15T05:51:21;0.60;;;0.60;;
60969;SDS011;46841;48.938;9.502;2024-02-15T05:53:47;0.60;;;0.60;;
60969;SDS011;46841;48.938;9.502;2024-02-15T05:56:14;0.70;;;0.70;;
60969;SDS011;46841;48.938;9.502;2024-02-15T05:58:43;0.60;;;0.60;;
60969;SDS011;46841;48.938;9.502;2024-02-15T06:01:09;0.60;;;0.60;;
60969;SDS011;46841;48.938;9.502;2024-02-15T06:03:38;0.60;;;0.60;;
60969;SDS011;46841;48.938;9.502;2024-02-15T06:06:05;0.60;;;0.60;;
60969;SDS011;46841;48.938;9.502;2024-02-15T06:08:34;0.60;;;0.60;;
60969;SDS011;46841;48.938;9.502;2024-02-15T06:11:02;0.60;;;0.60;;
60969;SDS011;46841;48.938;9.502;2024-02-15T06:13:35;0.60;;;0.60;;
60969;SDS011;46841;48.938;9.502;2024-02-15T06:16:01;0.60;;;0.60;;
60969;SDS011;46841;48.938;9.502;2024-02-15T06:18:49;0.68;;;0.68;;
60969;SDS011;46841;48.938;9.502;2024-02-15T06:21:15;0.60;;;0.60;;
60969;SDS011;46841;48.938;9.502;2024-02-15T06:23:44;0.60;;;0.60;;
60969;SDS011;46841;48.938;9.502;2024-02-15T06:26:10;0.60;;;0.60;;
60969;SDS011;46841;48.938;9.502;2024-02-15T06:28:36;0.60;;;0.60;;
60969;SDS011;46841;48.938;9.502;2024-02-15T06:31:20;0.60;;;0.60;;
60969;SDS011;46841;48.938;9.502;2024-02-15T06:34:05;0.60;;;0.60;;
60969;SDS011;46841;48.938;9.502;2024-02-15T06:36:50;0.60;;;0.60;;
60969;SDS011;46841;48.938;9.502;2024-02-15T06:39:36;0.60;;;0.60;;
60969;SDS011;46841;48.938;9.502;2024-02-15T06:42:11;0.60;;;0.60;;
60969;SDS011;46841;48.938;9.502;2024-02-15T06:44:45;0.68;;;0.68;;
60969;SDS011;46841;48.938;9.502;2024-02-15T06:47:12;0.60;;;0.60;;
60969;SDS011;46841;48.938;9.502;2024-02-15T06:49:41;0.60;;;0.60;;
60969;SDS011;46841;48.938;9.502;2024-02-15T06:52:09;0.60;;;0.60;;
60969;SDS011;46841;48.938;9.502;2024-02-15T06:54:40;0.60;;;0.60;;
60969;SDS011;46841;48.938;9.502;2024-02-15T07:57:39;0.60;;;0.60;;
60969;SDS011;46841;48.938;9.502;2024-02-15T08:08:15;0.60;;;0.60;;
60969;SDS011;46841;48.938;9.502;2024-02-15T08:10:41;0.60;;;0.60;;
60969;SDS011;46841;48.938;9.502;2024-02-15T08:13:08;0.50;;;0.50;;
60969;SDS011;46841;48.938;9.502;2024-02-15T08:15:34;0.50;;;0.50;;
60969;SDS011;46841;48.938;9.502;2024-02-15T08:18:00;0.40;;;0.40;;
60969;SDS011;46841;48.938;9.502;2024-02-15T08:20:30;0.40;;;0.40;;
60969;SDS011;46841;48.938;9.502;2024-02-15T08:22:56;0.30;;;0.30;;
60969;SDS011;46841;48.938;9.502;2024-02-15T08:25:24;0.30;;;0.30;;
60969;SDS011;46841;48.938;9.502;2024-02-15T08:27:50;0.40;;;0.40;;
60969;SDS011;46841;48.938;9.502;2024-02-15T08:30:17;0.40;;;0.40;;
60969;SDS011;46841;48.938;9.502;2024-02-15T08:32:43;0.40;;;0.40;;
60969;SDS011;46841;48.938;9.502;2024-02-15T08:35:12;0.32;;;0.32;;
60969;SDS011;46841;48.938;9.502;2024-02-15T08:37:38;0.30;;;0.30;;
60969;SDS011;46841;48.938;9.502;2024-02-15T08:40:04;0.30;;;0.30;;
60969;SDS011;46841;48.938;9.502;2024-02-15T08:42:41;0.30;;;0.30;;
60969;SDS011;46841;48.938;9.502;2024-02-15T08:45:08;0.30;;;0.30;;
60969;SDS011;46841;48.938;9.502;2024-02-15T08:47:35;0.40;;;0.40;;
60969;SDS011;46841;48.938;9.502;2024-02-15T08:50:04;0.30;;;0.30;;
60969;SDS011;46841;48.938;9.502;2024-02-15T08:52:31;0.30;;;0.30;;
60969;SDS011;46841;48.938;9.502;2024-02-15T08:54:57;0.40;;;0.40;;
60969;SDS011;46841;48.938;9.502;2024-02-15T08:57:24;0.40;;;0.40;;
60969;SDS011;46841;48.938;9.502;2024-02-15T08:59:51;0.30;;;0.30;;
60969;SDS011;46841;48.938;9.502;2024-02-15T09:02:17;0.30;;;0.30;;
60969;SDS011;46841;48.938;9.502;2024-02-15T09:04:43;0.30;;;0.30;;
60969;SDS011;46841;48.938;9.502;2024-02-15T09:07:09;0.30;;;0.30;;
60969;SDS011;46841;48.938;9.502;2024-02-15T09:09:35;0.30;;;0.30;;
60969;SDS011;46841;48.938;9.502;2024-02-15T09:14:33;0.30;;;0.30;;
60969;SDS011;46841;48.938;9.502;2024-02-15T09:17:03;0.30;;;0.30;;
60969;SDS011;46841;48.938;9.502;2024-02-15T09:19:33;0.30;;;0.30;;
60969;SDS011;46841;48.938;9.502;2024-02-15T09:21:59;0.30;;;0.30;;
60969;SDS011;46841;48.938;9.502;2024-02-15T09:24:25;0.30;;;0.30;;
60969;SDS011;46841;48.938;9.502;2024-02-15T09:26:51;0.20;;;0.20;;
60969;SDS011;46841;48.938;9.502;2024-02-15T09:29:18;0.30;;;0.30;;
60969;SDS011;46841;48.938;9.502;2024-02-15T09:31:46;0.20;;;0.20;;
60969;SDS011;46841;48.938;9.502;2024-02-15T09:36:39;0.20;;;0.20;;
60969;SDS011;46841;48.938;9.502;2024-02-15T09:39:04;0.20;;;0.20;;
60969;SDS011;46841;48.938;9.502;2024-02-15T09:41:32;0.20;;;0.20;;
60969;SDS011;46841;48.938;9.502;2024-02-15T09:43:59;0.20;;;0.20;;
60969;SDS011;46841;48.938;9.502;2024-02-15T09:46:26;0.20;;;0.20;;
60969;SDS011;46841;48.938;9.502;2024-02-15T09:48:54;0.10;;;0.10;;
60969;SDS011;46841;48.938;9.502;2024-02-15T09:51:25;0.13;;;0.13;;
60969;SDS011;46841;48.938;9.502;2024-02-15T09:53:52;0.10;;;0.10;;
60969;SDS011;46841;48.938;9.502;2024-02-15T09:56:19;0.20;;;0.20;;
60969;SDS011;46841;48.938;9.502;2024-02-15T09:58:46;0.20;;;0.20;;
60969;SDS011;46841;48.938;9.502;2024-02-15T10:01:12;0.20;;;0.20;;
60969;SDS011;46841;48.938;9.502;2024-02-15T10:03:39;0.20;;;0.20;;
60969;SDS011;46841;48.938;9.502;2024-02-15T10:06:06;0.20;;;0.20;;
60969;SDS011;46841;48.938;9.502;2024-02-15T10:08:31;0.20;;;0.20;;
60969;SDS011;46841;48.938;9.502;2024-02-15T10:11:07;0.20;;;0.20;;
60969;SDS011;46841;48.938;9.502;2024-02-15T10:13:34;0.20;;;0.20;;
60969;SDS011;46841;48.938;9.502;2024-02-15T10:16:22;0.20;;;0.20;;
60969;SDS011;46841;48.938;9.502;2024-02-15T10:18:50;0.20;;;0.20;;
60969;SDS011;46841;48.938;9.502;2024-02-15T10:24:07;0.10;;;0.10;;
60969;SDS011;46841;48.938;9.502;2024-02-15T10:26:41;0.10;;;0.10;;
60969;SDS011;46841;48.938;9.502;2024-02-15T10:29:13;0.10;;;0.10;;
60969;SDS011;46841;48.938;9.502;2024-02-15T10:31:54;0.10;;;0.10;;
60969;SDS011;46841;48.938;9.502;2024-02-15T10:34:21;0.10;;;0.10;;
60969;SDS011;46841;48.938;9.502;2024-02-15T10:37:12;0.20;;;0.20;;
60969;SDS011;46841;48.938;9.502;2024-02-15T10:39:37;0.10;;;0.10;;
60969;SDS011;46841;48.938;9.502;2024-02-15T10:42:04;0.20;;;0.20;;
60969;SDS011;46841;48.938;9.502;2024-02-15T10:44:36;0.10;;;0.10;;
60969;SDS011;46841;48.938;9.502;2024-02-15T10:47:13;0.10;;;0.10;;
60969;SDS011;46841;48.938;9.502;2024-02-15T10:49:42;0.10;;;0.10;;
60969;SDS011;46841;48.938;9.502;2024-02-15T10:52:08;0.10;;;0.10;;
60969;SDS011;46841;48.938;9.502;2024-02-15T10:57:37;0.10;;;0.10;;
60969;SDS011;46841;48.938;9.502;2024-02-15T11:00:07;0.10;;;0.10;;
60969;SDS011;46841;48.938;9.502;2024-02-15T11:05:52;0.20;;;0.20;;
60969;SDS011;46841;48.938;9.502;2024-02-15T11:08:24;0.10;;;0.10;;
60969;SDS011;46841;48.938;9.502;2024-02-15T11:10:50;0.20;;;0.20;;
60969;SDS011;46841;48.938;9.502;2024-02-15T11:13:16;0.10;;;0.10;;
60969;SDS011;46841;48.938;9.502;2024-02-15T11:15:46;0.15;;;0.15;;
60969;SDS011;46841;48.938;9.502;2024-02-15T11:21:14;0.20;;;0.20;;
60969;SDS011;46841;48.938;9.502;2024-02-15T11:23:42;0.20;;;0.20;;
60969;SDS011;46841;48.938;9.502;2024-02-15T11:26:10;0.20;;;0.20;;
60969;SDS011;46841;48.938;9.502;2024-02-15T11:28:55;0.20;;;0.20;;
60969;SDS011;46841;48.938;9.502;2024-02-15T11:34:51;0.10;;;0.10;;
60969;SDS011;46841;48.938;9.502;2024-02-15T11:37:49;0.10;;;0.10;;
60969;SDS011;46841;48.938;9.502;2024-02-15T11:42:54;0.20;;;0.20;;
60969;SDS011;46841;48.938;9.502;2024-02-15T11:45:25;0.20;;;0.20;;
60969;SDS011;46841;48.938;9.502;2024-02-15T11:47:52;0.20;;;0.20;;
60969;SDS011;46841;48.938;9.502;2024-02-15T11:50:19;0.20;;;0.20;;
60969;SDS011;46841;48.938;9.502;2024-02-15T11:52:51;0.20;;;0.20;;
60969;SDS011;46841;48.938;9.502;2024-02-15T11:55:20;0.20;;;0.20;;
60969;SDS011;46841;48.938;9.502;2024-02-15T11:57:56;0.20;;;0.20;;
60969;SDS011;46841;48.938;9.502;2024-02-15T12:00:48;0.20;;;0.20;;
60969;SDS011;46841;48.938;9.502;2024-02-15T12:03:34;0.20;;;0.20;;
60969;SDS011;46841;48.938;9.502;2024-02-15T12:06:19;0.20;;;0.20;;
60969;SDS011;46841;48.938;9.502;2024-02-15T12:09:03;0.20;;;0.20;;
60969;SDS011;46841;48.938;9.502;2024-02-15T12:11:47;0.20;;;0.20;;
60969;SDS011;46841;48.938;9.502;2024-02-15T12:14:41;0.20;;;0.20;;
60969;SDS011;46841;48.938;9.502;2024-02-15T12:17:27;0.20;;;0.20;;
60969;SDS011;46841;48.938;9.502;2024-02-15T12:20:12;0.20;;;0.20;;
60969;SDS011;46841;48.938;9.502;2024-02-15T12:22:47;0.20;;;0.20;;
60969;SDS011;46841;48.938;9.502;2024-02-15T12:25:15;0.20;;;0.20;;
60969;SDS011;46841;48.938;9.502;2024-02-15T12:27:42;0.20;;;0.20;;
60969;SDS011;46841;48.938;9.502;2024-02-15T12:30:15;0.17;;;0.17;;
60969;SDS011;46841;48.938;9.502;2024-02-15T12:35:12;0.20;;;0.20;;
60969;SDS011;46841;48.938;9.502;2024-02-15T12:38:05;0.20;;;0.20;;
60969;SDS011;46841;48.938;9.502;2024-02-15T12:40:31;0.20;;;0.20;;
60969;SDS011;46841;48.938;9.502;2024-02-15T12:42:58;0.10;;;0.10;;
60969;SDS011;46841;48.938;9.502;2024-02-15T12:45:31;0.20;;;0.20;;
60969;SDS011;46841;48.938;9.502;2024-02-15T12:47:57;0.20;;;0.20;;
60969;SDS011;46841;48.938;9.502;2024-02-15T12:50:26;0.20;;;0.20;;
60969;SDS011;46841;48.938;9.502;2024-02-15T12:52:53;0.20;;;0.20;;
60969;SDS011;46841;48.938;9.502;2024-02-15T12:55:21;0.20;;;0.20;;
60969;SDS011;46841;48.938;9.502;2024-02-15T12:57:53;0.10;;;0.10;;
60969;SDS011;46841;48.938;9.502;2024-02-15T13:00:22;0.10;;;0.10;;
60969;SDS011;46841;48.938;9.502;2024-02-15T13:02:49;0.20;;;0.20;;
60969;SDS011;46841;48.938;9.502;2024-02-15T13:05:16;0.10;;;0.10;;
60969;SDS011;46841;48.938;9.502;2024-02-15T13:07:47;0.10;;;0.10;;
60969;SDS011;46841;48.938;9.502;2024-02-15T13:10:16;0.20;;;0.20;;
60969;SDS011;46841;48.938;9.502;2024-02-15T13:12:42;0.20;;;0.20;;
60969;SDS011;46841;48.938;9.502;2024-02-15T13:15:10;0.20;;;0.20;;
60969;SDS011;46841;48.938;9.502;2024-02-15T13:17:45;0.20;;;0.20;;
60969;SDS011;46841;48.938;9.502;2024-02-15T13:20:14;0.20;;;0.20;;
60969;SDS011;46841;48.938;9.502;2024-02-15T13:22:41;0.20;;;0.20;;
60969;SDS011;46841;48.938;9.502;2024-02-15T13:25:08;0.20;;;0.20;;
60969;SDS011;46841;48.938;9.502;2024-02-15T13:27:35;0.20;;;0.20;;
60969;SDS011;46841;48.938;9.502;2024-02-15T13:30:05;0.20;;;0.20;;
60969;SDS011;46841;48.938;9.502;2024-02-15T13:32:52;0.20;;;0.20;;
60969;SDS011;46841;48.938;9.502;2024-02-15T13:35:21;0.20;;;0.20;;
60969;SDS011;46841;48.938;9.502;2024-02-15T13:37:55;0.20;;;0.20;;
60969;SDS011;46841;48.938;9.502;2024-02-15T13:40:23;0.20;;;0.20;;
60969;SDS011;46841;48.938;9.502;2024-02-15T13:42:51;0.20;;;0.20;;
60969;SDS011;46841;48.938;9.502;2024-02-15T13:45:41;0.20;;;0.20;;
60969;SDS011;46841;48.938;9.502;2024-02-15T13:48:06;0.20;;;0.20;;
60969;SDS011;46841;48.938;9.502;2024-02-15T13:50:33;0.20;;;0.20;;
60969;SDS011;46841;48.938;9.502;2024-02-15T13:52:59;0.20;;;0.20;;
60969;SDS011;46841;48.938;9.502;2024-02-15T13:55:25;0.10;;;0.10;;
60969;SDS011;46841;48.938;9.502;2024-02-15T13:57:51;0.20;;;0.20;;
60969;SDS011;46841;48.938;9.502;2024-02-15T14:00:18;0.20;;;0.20;;
60969;SDS011;46841;48.938;9.502;2024-02-15T14:02:50;0.10;;;0.10;;
60969;SDS011;46841;48.938;9.502;2024-02-15T14:05:24;0.15;;;0.15;;
60969;SDS011;46841;48.938;9.502;2024-02-15T14:07:54;0.20;;;0.20;;
60969;SDS011;46841;48.938;9.502;2024-02-15T14:10:21;0.17;;;0.17;;
60969;SDS011;46841;48.938;9.502;2024-02-15T14:13:04;0.13;;;0.13;;
60969;SDS011;46841;48.938;9.502;2024-02-15T14:15:34;0.10;;;0.10;;
60969;SDS011;46841;48.938;9.502;2024-02-15T14:18:08;0.10;;;0.10;;
60969;SDS011;46841;48.938;9.502;2024-02-15T14:20:36;0.20;;;0.20;;
60969;SDS011;46841;48.938;9.502;2024-02-15T14:23:02;0.20;;;0.20;;
60969;SDS011;46841;48.938;9.502;2024-02-15T14:25:31;0.20;;;0.20;;
60969;SDS011;46841;48.938;9.502;2024-02-15T14:27:57;0.20;;;0.20;;
60969;SDS011;46841;48.938;9.502;2024-02-15T14:30:24;0.20;;;0.20;;
60969;SDS011;46841;48.938;9.502;2024-02-15T14:33:10;0.20;;;0.20;;
60969;SDS011;46841;48.938;9.502;2024-02-15T14:35:43;0.20;;;0.20;;
60969;SDS011;46841;48.938;9.502;2024-02-15T14:38:09;0.20;;;0.20;;
60969;SDS011;46841;48.938;9.502;2024-02-15T14:40:41;0.20;;;0.20;;
60969;SDS011;46841;48.938;9.502;2024-02-15T14:43:20;0.22;;;0.22;;
60969;SDS011;46841;48.938;9.502;2024-02-15T14:45:48;0.20;;;0.20;;
60969;SDS011;46841;48.938;9.502;2024-02-15T14:48:21;0.20;;;0.20;;
60969;SDS011;46841;48.938;9.502;2024-02-15T14:50:56;0.20;;;0.20;;
60969;SDS011;46841;48.938;9.502;2024-02-15T14:53:23;0.20;;;0.20;;
60969;SDS011;46841;48.938;9.502;2024-02-15T14:55:50;0.20;;;0.20;;
60969;SDS011;46841;48.938;9.502;2024-02-15T14:58:17;0.20;;;0.20;;
60969;SDS011;46841;48.938;9.502;2024-02-15T15:03:12;0.20;;;0.20;;
60969;SDS011;46841;48.938;9.502;2024-02-15T15:05:38;0.20;;;0.20;;
60969;SDS011;46841;48.938;9.502;2024-02-15T15:08:25;0.20;;;0.20;;
60969;SDS011;46841;48.938;9.502;2024-02-15T15:11:09;0.20;;;0.20;;
60969;SDS011;46841;48.938;9.502;2024-02-15T15:13:53;0.30;;;0.30;;
60969;SDS011;46841;48.938;9.502;2024-02-15T15:16:20;0.20;;;0.20;;
60969;SDS011;46841;48.938;9.502;2024-02-15T15:18:47;0.20;;;0.20;;
60969;SDS011;46841;48.938;9.502;2024-02-15T15:21:13;0.22;;;0.22;;
60969;SDS011;46841;48.938;9.502;2024-02-15T15:23:39;0.30;;;0.30;;
60969;SDS011;46841;48.938;9.502;2024-02-15T15:26:07;0.20;;;0.20;;
60969;SDS011;46841;48.938;9.502;2024-02-15T15:28:38;0.20;;;0.20;;
60969;SDS011;46841;48.938;9.502;2024-02-15T15:31:05;0.20;;;0.20;;
60969;SDS011;46841;48.938;9.502;2024-02-15T15:36:01;0.30;;;0.30;;
60969;SDS011;46841;48.938;9.502;2024-02-15T15:38:28;0.30;;;0.30;;
60969;SDS011;46841;48.938;9.502;2024-02-15T15:40:54;0.20;;;0.20;;
60969;SDS011;46841;48.938;9.502;2024-02-15T15:43:20;0.20;;;0.20;;
60969;SDS011;46841;48.938;9.502;2024-02-15T15:45:46;0.20;;;0.20;;
60969;SDS011;46841;48.938;9.502;2024-02-15T15:48:13;0.20;;;0.20;;
60969;SDS011;46841;48.938;9.502;2024-02-15T15:50:41;0.30;;;0.30;;
60969;SDS011;46841;48.938;9.502;2024-02-15T15:53:09;0.20;;;0.20;;
60969;SDS011;46841;48.938;9.502;2024-02-15T15:55:38;0.22;;;0.22;;
60969;SDS011;46841;48.938;9.502;2024-02-15T15:58:04;0.20;;;0.20;;
60969;SDS011;46841;48.938;9.502;2024-02-15T16:00:33;0.20;;;0.20;;
60969;SDS011;46841;48.938;9.502;2024-02-15T16:03:01;0.20;;;0.20;;
60969;SDS011;46841;48.938;9.502;2024-02-15T16:05:30;0.28;;;0.28;;
60969;SDS011;46841;48.938;9.502;2024-02-15T17:07:20;0.30;;;0.30;;
60969;SDS011;46841;48.938;9.502;2024-02-15T17:09:46;0.40;;;0.40;;
60969;SDS011;46841;48.938;9.502;2024-02-15T17:12:12;0.40;;;0.40;;
60969;SDS011;46841;48.938;9.502;2024-02-15T17:14:38;0.40;;;0.40;;
60969;SDS011;46841;48.938;9.502;2024-02-15T17:17:27;0.38;;;0.38;;
60969;SDS011;46841;48.938;9.502;2024-02-15T17:19:57;0.38;;;0.38;;
60969;SDS011;46841;48.938;9.502;2024-02-15T17:22:42;0.40;;;0.40;;
60969;SDS011;46841;48.938;9.502;2024-02-15T17:25:08;0.40;;;0.40;;
60969;SDS011;46841;48.938;9.502;2024-02-15T17:27:44;0.40;;;0.40;;
60969;SDS011;46841;48.938;9.502;2024-02-15T17:30:10;0.40;;;0.40;;
60969;SDS011;46841;48.938;9.502;2024-02-15T17:32:45;0.40;;;0.40;;
60969;SDS011;46841;48.938;9.502;2024-02-15T17:35:11;0.40;;;0.40;;
60969;SDS011;46841;48.938;9.502;2024-02-15T17:37:44;0.40;;;0.40;;
60969;SDS011;46841;48.938;9.502;2024-02-15T17:40:13;0.40;;;0.40;;
60969;SDS011;46841;48.938;9.502;2024-02-15T17:42:42;0.40;;;0.40;;
60969;SDS011;46841;48.938;9.502;2024-02-15T17:45:22;0.40;;;0.40;;
60969;SDS011;46841;48.938;9.502;2024-02-15T17:47:48;0.40;;;0.40;;